Aeroporto :
LOGIN :

Iscrizione | Disclaimer

   EN    FR    IT 

 










Sommario :    VFR   VFR Marginale   IFR   IFR Intensivo   IFR Molto Intensivo
Visibilità : 
Base nubi : 
>= 8 km
>= 3000ft
5 / 8 km
1000 / 3000 ft
1500m / 5 km
500 / 1000 ft
800 / 1500m
200 / 500 ft
< 800m
< 200 ft
Simboli :   Temporali  Nebbia  Neve Forte  Precipitazioni Forti  Vento > 20 kt
SIGMETs :   Varie  Temporali  Ghiacco  Turbolenza  Onda orograficha  Ceneri Vulcaniche






- Altitudine del aeroporto : 270 ft
- Codice IATA : OXF


EGTK - Oxford (Kidlington)

ULTIMO METAR :
  • 301020Z 36014KT 9999 FEW021 SCT024 07/02 Q1035

METARs OBSOLETI :
  • 300950Z 01012KT 9999 FEW021 SCT024 07/02 Q1035
  • 300920Z 01014KT 9999 FEW022 BKN042 06/01 Q1036
  • 300850Z 36010KT 9999 FEW029 05/00 Q1036
  • 300820Z 36010KT 9999 FEW028 04/M00 Q1036
  • 300750Z 35008KT CAVOK 03/M01 Q1036

TAF TAF EGTK
Valido dal 30 a 09 ore il 30 a 18 ore UTC


300801Z 3009/3018 02011KT 9999 SCT025
TEMPO 3009/3018 6000 SHRA
PROB40
TEMPO 3011/3018 03015G25KT BKN014



MetMap, La meteo Aeronautica in un colpo d'occhio ! - Copyright ORBIFLY Dicembre 2007 - Disclaimer

ORBIFLY MET'MAP TEAM :

Programmazione e sviluppo : Alexandra Zaïnal
Concezione : Baudouin d'Aumeries
Aiuto per la programmazione : Marc-Olivier Méhu
Supporto tecnico e logistico : Manuel Goepfert
Aiuto per la traduzione : Arnaldo La Scala

Contatto : metmap@orbifly.com




FONTI E CREDITI :

   NOAA